HomeShort term forecast

Short term forecast

Graphical weather forecast for for Montreal:

Short term forecast

The above graphic is automatically refreshed every 3 hours.

Hourly Experimental Weather Forecast for the next 72 hours ®


 Date & Hour   Temp   Feel   Baro   Hum   Speed & Bearing   Wind Gust   Precip.%   Precip.   Visibility   Cloud cover   Conditions 
 12/06/2024 - 22:00  17.3°C  17.1°C  1014.2 hPa  76%  8.1 km/h   16.9 km/h  0%  --  25.1 km  46%  Partly cloudy 
 12/06/2024 - 23:00  16.6°C  16.4°C  1014.2 hPa  80%  8.4 km/h   18.9 km/h  0%  --  24.3 km  4%  Clear sky 
 13/06/2024 - 00:00  15.9°C  15.8°C  1014.0 hPa  83%  8.7 km/h   19.1 km/h  0%  --  23.0 km  4%  Clear sky 
 13/06/2024 - 01:00  15.2°C  15.0°C  1013.9 hPa  85%  9.1 km/h   21.0 km/h  0%  --  22.4 km  8%  Clear sky 
 13/06/2024 - 02:00  14.7°C  14.5°C  1013.7 hPa  87%  8.7 km/h   19.6 km/h  0%  --  22.0 km  24%  Mostly clear 
 13/06/2024 - 03:00  14.1°C  13.8°C  1013.5 hPa  87%  8.0 km/h   18.5 km/h  0%  --  21.9 km  15%  Mostly clear 
 13/06/2024 - 04:00  13.7°C  13.4°C  1013.4 hPa  88%  8.0 km/h   17.3 km/h  0%  --  21.7 km  28%  Mostly clear 
 13/06/2024 - 05:00  13.2°C  12.9°C  1013.5 hPa  88%  7.2 km/h   15.8 km/h  0%  --  22.1 km  61%  Partly cloudy 
 13/06/2024 - 06:00  13.7°C  13.4°C  1013.4 hPa  85%  6.8 km/h   13.4 km/h  0%  --  21.7 km  63%  Mostly cloudy 
 13/06/2024 - 07:00  15.0°C  14.7°C  1013.5 hPa  79%  6.8 km/h   15.3 km/h  0%  --  24.0 km  40%  Partly cloudy 
 13/06/2024 - 08:00  16.7°C  16.3°C  1013.5 hPa  72%  7.9 km/h   19.0 km/h  0%  --  26.2 km  22%  Mostly clear 
 13/06/2024 - 09:00  18.5°C  18.2°C  1013.2 hPa  66%  9.3 km/h   22.1 km/h  0%  --  28.3 km  51%  Partly cloudy 
 13/06/2024 - 10:00  20.5°C  20.3°C  1012.6 hPa  62%  11.2 km/h   24.3 km/h  0%  --  30.0 km  68%  Mostly cloudy 
 13/06/2024 - 11:00  22.4°C  22.5°C  1012.0 hPa  59%  12.9 km/h   27.6 km/h  0%  --  29.7 km  77%  Mostly cloudy 
 13/06/2024 - 12:00  23.9°C  24.1°C  1011.1 hPa  58%  14.8 km/h   34.4 km/h  0%  --  25.9 km  74%  Mostly cloudy 
 13/06/2024 - 13:00  25.1°C  25.4°C  1010.2 hPa  56%  16.4 km/h   39.0 km/h  4%  --  26.5 km  85%  Mostly cloudy 
 13/06/2024 - 14:00  25.5°C  26.0°C  1009.5 hPa  56%  16.8 km/h   40.9 km/h  5%  --  28.4 km  85%  Mostly cloudy 
 13/06/2024 - 15:00  26.0°C  26.6°C  1008.9 hPa  56%  18.0 km/h   39.5 km/h  8%  --  24.6 km  84%  Mostly cloudy 
 13/06/2024 - 16:00  25.7°C  26.4°C  1008.2 hPa  59%  19.2 km/h   39.9 km/h  9%  --  24.3 km  86%  Mostly cloudy 
 13/06/2024 - 17:00  25.2°C  26.1°C  1007.5 hPa  61%  16.5 km/h   38.6 km/h  0%  --  28.0 km  81%  Mostly cloudy 
 13/06/2024 - 18:00  25.4°C  26.2°C  1006.9 hPa  61%  17.5 km/h   45.4 km/h  12%  --  27.9 km  93%  Cloudy sky 
 13/06/2024 - 19:00  24.0°C  24.9°C  1006.9 hPa  67%  15.9 km/h   42.1 km/h  14%  1.00 mm/h  18.8 km  91%  Cloudy sky 
 13/06/2024 - 20:00  22.5°C  23.3°C  1006.8 hPa  72%  16.0 km/h   44.3 km/h  15%  0.71 mm/h  20.6 km  84%  Mostly cloudy 
 13/06/2024 - 21:00  21.3°C  21.9°C  1006.9 hPa  76%  17.6 km/h   44.9 km/h  20%  1.00 mm/h  20.2 km  83%  Rain 
 13/06/2024 - 22:00  20.2°C  20.8°C  1006.7 hPa  81%  17.3 km/h   43.6 km/h  22%  0.61 mm/h  20.5 km  74%  Drizzle 
 13/06/2024 - 23:00  19.9°C  20.4°C  1006.4 hPa  82%  18.7 km/h   48.9 km/h  19%  --  16.1 km  78%  Mostly cloudy 
 14/06/2024 - 00:00  19.2°C  19.7°C  1006.3 hPa  85%  21.7 km/h   53.0 km/h  21%  1.05 mm/h  15.7 km  86%  Rain 
 14/06/2024 - 01:00  18.6°C  19.0°C  1006.1 hPa  87%  21.9 km/h   48.0 km/h  24%  1.72 mm/h  18.4 km  83%  Rain 
 14/06/2024 - 02:00  18.4°C  18.9°C  1006.0 hPa  88%  21.3 km/h   45.4 km/h  22%  2.09 mm/h  24.3 km  94%  Rain 
 14/06/2024 - 03:00  18.0°C  18.5°C  1005.8 hPa  90%  19.9 km/h   41.3 km/h  16%  1.56 mm/h  24.5 km  95%  Cloudy sky 
 14/06/2024 - 04:00  17.8°C  18.2°C  1006.0 hPa  91%  19.0 km/h   38.1 km/h  16%  0.62 mm/h  21.1 km  92%  Cloudy sky 
 14/06/2024 - 05:00  17.6°C  18.0°C  1006.3 hPa  92%  18.1 km/h   34.9 km/h  0%  --  23.4 km  94%  Cloudy sky 
 14/06/2024 - 06:00  17.8°C  18.2°C  1006.8 hPa  92%  17.8 km/h   34.1 km/h  16%  0.81 mm/h  20.3 km  91%  Cloudy sky 
 14/06/2024 - 07:00  18.1°C  18.6°C  1007.4 hPa  91%  17.9 km/h   31.0 km/h  14%  0.59 mm/h  17.2 km  78%  Mostly cloudy 
 14/06/2024 - 08:00  18.6°C  19.2°C  1007.8 hPa  88%  17.6 km/h   32.2 km/h  13%  --  20.1 km  71%  Mostly cloudy 
 14/06/2024 - 09:00  19.3°C  19.7°C  1008.3 hPa  82%  18.0 km/h   26.2 km/h  0%  --  22.7 km  62%  Partly cloudy 
 14/06/2024 - 10:00  20.4°C  20.7°C  1008.7 hPa  76%  17.5 km/h   25.4 km/h  0%  --  24.6 km  59%  Partly cloudy 
 14/06/2024 - 11:00  21.1°C  21.4°C  1008.9 hPa  70%  16.5 km/h   23.3 km/h  0%  --  26.4 km  69%  Mostly cloudy 
 14/06/2024 - 12:00  21.9°C  22.1°C  1009.1 hPa  64%  16.0 km/h   22.3 km/h  0%  --  27.7 km  76%  Mostly cloudy 
 14/06/2024 - 13:00  22.7°C  22.8°C  1009.0 hPa  60%  15.8 km/h   22.1 km/h  0%  --  28.1 km  76%  Mostly cloudy 
 14/06/2024 - 14:00  23.2°C  23.4°C  1008.9 hPa  58%  16.2 km/h   23.0 km/h  8%  --  27.6 km  80%  Mostly cloudy 
 14/06/2024 - 15:00  23.1°C  23.1°C  1009.0 hPa  58%  16.1 km/h   22.3 km/h  8%  --  27.8 km  82%  Mostly cloudy 
 14/06/2024 - 16:00  22.6°C  22.7°C  1009.1 hPa  60%  15.6 km/h   21.2 km/h  9%  --  27.6 km  80%  Mostly cloudy 
 14/06/2024 - 17:00  22.2°C  22.2°C  1009.3 hPa  60%  15.1 km/h   21.4 km/h  8%  --  25.4 km  80%  Mostly cloudy 
 14/06/2024 - 18:00  21.8°C  21.6°C  1009.7 hPa  59%  13.8 km/h   19.8 km/h  7%  --  27.5 km  78%  Mostly cloudy 
 14/06/2024 - 19:00  20.7°C  20.5°C  1010.2 hPa  60%  12.8 km/h   20.8 km/h  6%  --  28.1 km  73%  Mostly cloudy 
 14/06/2024 - 20:00  19.7°C  19.4°C  1010.8 hPa  62%  11.5 km/h   21.9 km/h  0%  --  28.1 km  74%  Mostly cloudy 
 14/06/2024 - 21:00  18.7°C  18.3°C  1011.4 hPa  64%  12.3 km/h   26.3 km/h  0%  --  27.0 km  52%  Partly cloudy 
 14/06/2024 - 22:00  17.4°C  17.0°C  1012.1 hPa  67%  11.7 km/h   28.4 km/h  0%  --  25.5 km  63%  Mostly cloudy 
 14/06/2024 - 23:00  16.5°C  16.0°C  1012.6 hPa  68%  11.5 km/h   29.0 km/h  0%  --  24.7 km  58%  Partly cloudy 
 15/06/2024 - 00:00  15.6°C  15.1°C  1013.2 hPa  70%  11.6 km/h   28.0 km/h  0%  --  25.4 km  54%  Partly cloudy 
 15/06/2024 - 01:00  14.9°C  14.3°C  1013.7 hPa  70%  11.8 km/h   25.4 km/h  0%  --  26.7 km  46%  Partly cloudy 
 15/06/2024 - 02:00  13.9°C  13.2°C  1014.2 hPa  70%  13.2 km/h   28.3 km/h  0%  --  27.6 km  38%  Partly cloudy 
 15/06/2024 - 03:00  13.1°C  12.4°C  1014.7 hPa  70%  14.1 km/h   30.7 km/h  0%  --  28.2 km  42%  Partly cloudy 
 15/06/2024 - 04:00  12.2°C  11.5°C  1015.2 hPa  70%  14.1 km/h   30.7 km/h  0%  --  28.1 km  45%  Partly cloudy 
 15/06/2024 - 05:00  11.4°C  10.6°C  1015.9 hPa  70%  14.1 km/h   30.3 km/h  0%  --  27.8 km  25%  Mostly clear 
 15/06/2024 - 06:00  11.1°C  10.3°C  1016.8 hPa  70%  13.8 km/h   30.6 km/h  0%  --  27.5 km  28%  Mostly clear 
 15/06/2024 - 07:00  11.7°C  10.9°C  1017.5 hPa  68%  14.2 km/h   30.6 km/h  0%  --  27.6 km  22%  Mostly clear 
 15/06/2024 - 08:00  12.7°C  11.9°C  1018.0 hPa  64%  14.4 km/h   28.8 km/h  0%  --  27.8 km  12%  Clear sky 
 15/06/2024 - 09:00  13.8°C  12.9°C  1018.2 hPa  60%  13.9 km/h   26.2 km/h  0%  --  27.7 km  11%  Clear sky 
 15/06/2024 - 10:00  14.8°C  13.9°C  1018.3 hPa  56%  12.9 km/h   23.8 km/h  0%  --  27.1 km  10%  Clear sky 
 15/06/2024 - 11:00  16.2°C  15.3°C  1018.2 hPa  52%  11.9 km/h   22.3 km/h  0%  --  27.2 km  19%  Mostly clear 
 15/06/2024 - 12:00  17.3°C  16.3°C  1018.0 hPa  49%  11.6 km/h   23.0 km/h  0%  --  27.7 km  21%  Mostly clear 
 15/06/2024 - 13:00  18.5°C  17.5°C  1017.7 hPa  46%  11.2 km/h   23.7 km/h  0%  --  28.4 km  14%  Mostly clear 
 15/06/2024 - 14:00  19.4°C  18.4°C  1017.4 hPa  43%  10.9 km/h   23.8 km/h  0%  --  28.9 km  14%  Mostly clear 
 15/06/2024 - 15:00  20.2°C  19.1°C  1017.1 hPa  41%  11.1 km/h   24.7 km/h  0%  --  29.9 km  31%  Mostly clear 
 15/06/2024 - 16:00  20.7°C  19.6°C  1016.9 hPa  39%  11.8 km/h   25.8 km/h  0%  --  29.9 km  29%  Mostly clear 
 15/06/2024 - 17:00  20.9°C  19.9°C  1016.9 hPa  39%  12.2 km/h   26.4 km/h  0%  --  29.9 km  26%  Mostly clear 
 15/06/2024 - 18:00  20.6°C  19.5°C  1017.1 hPa  41%  12.2 km/h   26.9 km/h  0%  --  29.9 km  16%  Mostly clear 
 15/06/2024 - 19:00  19.8°C  18.9°C  1017.6 hPa  45%  11.5 km/h   25.5 km/h  0%  --  29.2 km  11%  Clear sky 
 15/06/2024 - 20:00  18.5°C  17.6°C  1018.1 hPa  50%  10.7 km/h   24.8 km/h  0%  --  29.0 km  8%  Clear sky 
 15/06/2024 - 21:00  17.0°C  16.2°C  1018.8 hPa  54%  10.3 km/h   23.6 km/h  0%  --  28.8 km  6%  Clear sky 
 15/06/2024 - 22:00  15.5°C  14.7°C  1019.5 hPa  58%  9.9 km/h   22.4 km/h  0%  --  28.6 km  4%  Clear sky 

Weather data sources : HRRR, GFS, Weatherkit, NOAA, Deutscher Wetterdienst, ECMWF and JMA

Never based important decision based on the weather forecast published on this website

 

Past weather and reports

Past weatherFind in this section the past weather conditions, weather archive, graphics, reports and statistics.

Current conditions

Current weather condition for MontrealAll you need to know about the current weather conditions for Montreal. Weather data is updated every 10 minutes.

Weather forecast

Current Montreal weatherSince 2004, celinium.com website has provided accurate weather forecast for Montreal's island.